Time;durP1;ratioP1;P1;durP2;ratioP2;P2;SDS_P1;SDS_P2;PMS_P1;PMS_P2;Temp;Humidity;BMP_temperature;BMP_pressure;BME280_temperature;BME280_humidity;BME280_pressure;Samples;Min_cycle;Max_cycle;Signal;HPM_P1;HPM_P2
2022/01/09 00:00:49;;;;;;;3.53;3.33;;;3.20;99.90;;;3.75;95.88;95965.88;5192074;28;20234;-63
2022/01/09 00:03:24;;;;;;;3.00;2.80;;;3.30;99.90;;;3.67;96.83;95959.53;5183188;28;20228;-62
2022/01/09 00:05:57;;;;;;;3.23;3.03;;;3.20;99.90;;;3.72;97.27;95954.72;5188620;28;20298;-62
2022/01/09 00:08:31;;;;;;;3.07;2.97;;;3.20;99.90;;;3.80;97.22;95955.97;5188318;28;20226;-63
2022/01/09 00:11:04;;;;;;;3.40;3.20;;;3.30;99.90;;;3.94;96.94;95941.53;5185581;28;20217;-62
2022/01/09 00:13:37;;;;;;;2.93;2.73;;;3.40;99.90;;;3.91;97.43;95947.28;5190885;28;20229;-62
2022/01/09 00:16:10;;;;;;;3.33;3.20;;;3.50;99.90;;;4.11;97.23;95939.88;5187840;28;20225;-62
2022/01/09 00:18:44;;;;;;;3.53;3.33;;;3.50;99.90;;;3.99;97.78;95938.44;5193013;28;20229;-63
2022/01/09 00:21:18;;;;;;;3.87;3.63;;;3.50;99.90;;;4.00;98.46;95937.66;5189904;28;20225;-64
2022/01/09 00:23:51;;;;;;;3.33;3.13;;;3.50;99.90;;;4.01;98.80;95921.72;5188917;28;20222;-63
2022/01/09 00:26:24;;;;;;;3.13;3.03;;;3.50;99.90;;;4.20;98.02;95927.69;5188815;28;20226;-63
2022/01/09 00:28:57;;;;;;;3.27;3.17;;;3.60;99.90;;;4.18;98.12;95924.22;5185554;28;20236;-63
2022/01/09 00:31:30;;;;;;;3.37;3.17;;;3.60;99.90;;;4.16;98.82;95913.16;5188480;28;20229;-63
2022/01/09 00:34:04;;;;;;;3.10;2.90;;;3.60;99.90;;;4.20;99.05;95907.44;5197529;28;20229;-63
2022/01/09 00:36:37;;;;;;;2.70;2.60;;;3.60;99.90;;;4.20;99.11;95899.88;5191112;28;20235;-63
2022/01/09 00:39:10;;;;;;;2.63;2.53;;;3.60;99.90;;;4.12;99.87;95898.63;5190908;28;20223;-63
2022/01/09 00:41:43;;;;;;;2.90;2.70;;;3.60;99.90;;;4.16;100.00;95895.47;5176636;28;20743;-63
2022/01/09 00:44:16;;;;;;;2.67;2.57;;;3.70;99.90;;;4.19;100.00;95891.41;5184544;28;20711;-62
2022/01/09 00:46:49;;;;;;;2.63;2.53;;;3.60;99.90;;;4.18;100.00;95888.84;5178800;28;20253;-62
2022/01/09 00:49:24;;;;;;;3.07;2.87;;;3.60;99.90;;;4.22;100.00;95883.13;5179989;28;20222;-63
2022/01/09 00:51:57;;;;;;;2.97;2.87;;;3.70;99.90;;;4.26;100.00;95882.47;5185785;28;20221;-63
2022/01/09 00:54:30;;;;;;;3.20;3.10;;;3.70;99.90;;;4.33;99.44;95882.00;5183950;28;20221;-62
2022/01/09 00:57:04;;;;;;;2.73;2.57;;;3.80;99.90;;;4.47;98.01;95870.00;5187914;28;20225;-63
2022/01/09 00:59:37;;;;;;;2.60;2.50;;;3.90;99.90;;;4.51;98.02;95865.16;5183210;28;20262;-62
2022/01/09 01:02:10;;;;;;;3.07;2.87;;;3.90;99.90;;;4.43;98.15;95866.44;5194142;28;20221;-65
2022/01/09 01:04:45;;;;;;;2.30;2.20;;;3.90;99.90;;;4.53;98.15;95867.75;5185984;28;20657;-63
2022/01/09 01:07:18;;;;;;;2.63;2.53;;;4.00;99.90;;;4.52;97.37;95855.91;5186740;28;20217;-63
2022/01/09 01:09:51;;;;;;;3.27;3.07;;;4.00;99.90;;;4.43;97.98;95861.38;5184006;28;20313;-63
2022/01/09 01:12:26;;;;;;;3.00;2.90;;;4.00;99.90;;;4.48;98.07;95865.00;5184622;28;20223;-63
2022/01/09 01:14:59;;;;;;;2.83;2.73;;;4.00;99.90;;;4.58;96.67;95852.78;5182976;28;20232;-62
2022/01/09 01:17:33;;;;;;;2.57;2.47;;;4.10;99.90;;;4.70;96.18;95850.84;5179527;28;20598;-63
2022/01/09 01:20:10;;;;;;;2.50;2.40;;;4.20;99.90;;;4.59;96.87;95846.97;5184255;28;20236;-63
2022/01/09 01:22:43;;;;;;;2.77;2.67;;;4.20;99.90;;;4.51;97.19;95847.44;5184990;28;20222;-63
2022/01/09 01:25:16;;;;;;;3.10;3.00;;;4.10;99.90;;;4.61;96.81;95845.38;5184974;28;20222;-61
2022/01/09 01:27:49;;;;;;;2.90;2.80;;;4.10;99.90;;;4.52;97.23;95843.25;5185553;28;20219;-63
2022/01/09 01:30:22;;;;;;;2.80;2.70;;;4.10;99.90;;;4.53;97.63;95842.47;5183713;28;20238;-62
2022/01/09 01:32:55;;;;;;;3.00;2.90;;;4.10;99.90;;;4.64;96.61;95846.38;5190673;28;20309;-63
2022/01/09 01:35:30;;;;;;;3.07;2.97;;;4.20;99.90;;;4.73;95.42;95848.47;5186982;28;20694;-63
2022/01/09 01:38:03;;;;;;;2.17;2.07;;;4.30;99.90;;;4.78;94.59;95836.91;5187130;28;20627;-63
2022/01/09 01:40:36;;;;;;;2.70;2.60;;;4.30;99.90;;;4.78;94.08;95834.38;5192024;28;20230;-63
2022/01/09 01:43:09;;;;;;;3.23;3.03;;;4.40;99.90;;;4.80;94.81;95832.75;5178812;28;20227;-63
2022/01/09 01:45:43;;;;;;;2.70;2.60;;;4.30;99.90;;;4.79;93.85;95836.09;5181097;28;20221;-64
2022/01/09 01:48:16;;;;;;;2.60;2.50;;;4.40;99.90;;;4.78;95.16;95831.84;5184680;28;20219;-62
2022/01/09 01:50:50;;;;;;;3.10;3.00;;;4.30;99.90;;;4.74;94.66;95829.94;5182308;28;20723;-63
2022/01/09 01:53:25;;;;;;;2.40;2.33;;;4.30;99.90;;;4.75;94.66;95836.75;5185393;28;20244;-63
2022/01/09 01:56:00;;;;;;;2.60;2.50;;;4.30;99.90;;;4.79;94.58;95835.22;5182094;28;20657;-63
2022/01/09 01:58:35;;;;;;;2.80;2.70;;;4.30;99.90;;;4.83;94.39;95827.81;5192741;28;20221;-63
2022/01/09 02:01:08;;;;;;;2.77;2.67;;;4.30;99.90;;;4.84;94.36;95829.59;5194012;28;20282;-63
2022/01/09 02:03:41;;;;;;;2.77;2.63;;;4.30;99.90;;;4.78;95.16;95821.72;5183125;28;20228;-63
2022/01/09 02:06:15;;;;;;;2.53;2.43;;;4.30;99.90;;;4.84;94.28;95818.59;5180293;28;20605;-63
2022/01/09 02:08:49;;;;;;;2.90;2.70;;;4.30;99.90;;;4.85;94.50;95821.19;5189509;28;20320;-62
2022/01/09 02:11:22;;;;;;;2.80;2.70;;;4.30;99.90;;;4.88;94.80;95823.84;5183090;28;20222;-63
2022/01/09 02:13:55;;;;;;;2.97;2.77;;;4.30;99.90;;;4.75;94.92;95814.00;5182223;28;20223;-63
2022/01/09 02:16:29;;;;;;;2.10;2.00;;;4.20;99.90;;;4.78;94.63;95824.25;5182851;28;20218;-63
2022/01/09 02:19:03;;;;;;;2.00;2.00;;;4.30;99.90;;;4.93;92.47;95807.22;5183948;28;20599;-62
2022/01/09 02:21:37;;;;;;;2.70;2.60;;;4.40;99.90;;;5.10;91.50;95802.06;5184160;28;20231;-63
2022/01/09 02:24:10;;;;;;;1.67;1.67;;;4.60;99.90;;;5.06;91.64;95797.63;5184766;28;20222;-65
2022/01/09 02:26:43;;;;;;;2.57;2.47;;;4.50;99.90;;;5.02;91.35;95803.38;5191653;28;20230;-61
2022/01/09 02:29:17;;;;;;;2.03;2.03;;;4.50;99.90;;;5.09;90.48;95795.22;5188384;28;20214;-62
2022/01/09 02:31:50;;;;;;;2.37;2.27;;;4.60;99.90;;;5.11;90.41;95784.38;5191552;28;20232;-63
2022/01/09 02:34:23;;;;;;;2.40;2.30;;;4.60;99.90;;;5.13;90.33;95792.91;5186913;28;20236;-63
2022/01/09 02:36:57;;;;;;;2.27;2.07;;;4.60;99.90;;;5.14;90.26;95804.75;5192733;28;20231;-62
2022/01/09 02:39:30;;;;;;;2.10;2.03;;;4.60;99.90;;;5.11;90.46;95801.25;5192483;28;20232;-63
2022/01/09 02:42:04;;;;;;;3.67;3.40;;;4.60;99.90;;;5.11;90.07;95801.25;5187170;28;20227;-63
2022/01/09 02:44:37;;;;;;;2.27;2.17;;;4.60;99.90;;;5.06;90.99;95800.16;5178937;28;20682;-62
2022/01/09 02:47:10;;;;;;;3.40;3.20;;;4.50;99.90;;;5.07;90.50;95807.84;5185722;28;20764;-63
2022/01/09 02:49:48;;;;;;;2.20;2.10;;;4.50;99.90;;;5.17;89.83;95809.09;5186157;28;20230;-62
2022/01/09 02:52:30;;;;;;;1.77;1.77;;;4.60;99.90;;;5.17;89.22;95809.97;5186407;28;20226;-63
2022/01/09 02:55:11;;;;;;;1.67;1.67;;;4.60;99.90;;;5.15;89.55;95808.16;5183654;28;20230;-63
2022/01/09 02:57:46;;;;;;;2.10;2.00;;;4.60;99.90;;;5.08;89.96;95794.38;5186297;28;20222;-63
2022/01/09 03:00:22;;;;;;;2.50;2.40;;;4.60;99.90;;;5.14;90.04;95808.97;5186759;28;20221;-63
2022/01/09 03:02:56;;;;;;;1.90;1.90;;;4.50;99.90;;;5.06;90.58;95810.28;5186703;28;20223;-62
2022/01/09 03:05:31;;;;;;;2.00;2.00;;;4.50;99.90;;;5.10;90.39;95804.59;5186732;28;20689;-63
2022/01/09 03:08:06;;;;;;;2.23;2.13;;;4.40;99.90;;;5.07;89.70;95790.13;5188503;28;20226;-63
2022/01/09 03:10:39;;;;;;;2.30;2.20;;;4.50;99.90;;;5.16;88.86;95792.19;5186422;28;20212;-63
2022/01/09 03:13:12;;;;;;;2.23;2.23;;;4.50;99.90;;;5.12;89.73;95795.38;5196013;28;20594;-63
2022/01/09 03:15:46;;;;;;;1.93;1.87;;;4.60;99.90;;;5.06;89.66;95790.03;5188150;28;20238;-63
2022/01/09 03:18:19;;;;;;;2.93;2.83;;;4.50;99.90;;;5.11;89.61;95788.59;5186560;28;20230;-63
2022/01/09 03:20:52;;;;;;;2.10;2.00;;;4.50;99.90;;;5.10;89.71;95791.91;5185696;28;20237;-63
2022/01/09 03:23:26;;;;;;;1.90;1.90;;;4.50;99.90;;;5.07;90.59;95799.38;5190286;28;20226;-63
2022/01/09 03:26:02;;;;;;;2.00;2.00;;;4.50;99.90;;;5.12;90.52;95801.31;5186295;28;20221;-63
2022/01/09 03:28:35;;;;;;;2.13;2.13;;;4.40;99.90;;;5.25;89.44;95786.66;5188376;28;20218;-63
2022/01/09 03:31:08;;;;;;;2.37;2.30;;;4.50;99.90;;;5.18;90.23;95800.72;5184158;28;20222;-63
2022/01/09 03:33:41;;;;;;;1.90;1.90;;;4.50;99.90;;;5.09;91.62;95795.22;5181620;28;20222;-62
2022/01/09 03:36:14;;;;;;;2.03;2.03;;;4.40;99.90;;;5.06;91.88;95787.50;5188477;28;20219;-65
2022/01/09 03:38:48;;;;;;;1.50;1.50;;;4.40;99.90;;;5.15;90.96;95790.44;5188019;28;20222;-63
2022/01/09 03:41:21;;;;;;;2.67;2.47;;;4.40;99.90;;;5.12;91.40;95793.72;5186221;28;20218;-66
2022/01/09 03:43:54;;;;;;;2.20;2.10;;;4.40;99.90;;;5.08;91.52;95796.03;5189120;28;20675;-62
2022/01/09 03:46:28;;;;;;;1.83;1.83;;;4.40;99.90;;;5.12;91.77;95790.31;5179992;28;20686;-64
2022/01/09 03:49:01;;;;;;;2.10;2.00;;;4.50;99.90;;;5.11;91.89;95798.72;5184283;28;20596;-62
2022/01/09 03:51:37;;;;;;;2.07;2.07;;;4.50;99.90;;;5.11;91.92;95794.50;5185795;28;20219;-63
2022/01/09 03:54:11;;;;;;;2.23;2.13;;;4.40;99.90;;;5.04;92.77;95792.50;5192061;28;20226;-64
2022/01/09 03:56:44;;;;;;;2.10;2.10;;;4.40;99.90;;;5.22;90.69;95794.13;5173267;28;20218;-63
2022/01/09 03:59:19;;;;;;;1.77;1.77;;;4.50;99.90;;;5.33;90.31;95795.47;5190188;28;20228;-66
2022/01/09 04:01:52;;;;;;;2.17;2.17;;;4.60;99.90;;;5.34;90.79;95795.50;5180382;28;20230;-64
2022/01/09 04:04:25;;;;;;;1.63;1.63;;;4.60;99.90;;;5.32;90.11;95803.84;5186887;28;20227;-64
2022/01/09 04:06:58;;;;;;;1.93;1.93;;;4.60;99.90;;;5.41;90.39;95810.19;5186458;28;20237;-64
2022/01/09 04:09:39;;;;;;;2.00;2.00;;;4.70;99.90;;;5.36;90.77;95801.50;5185703;28;20232;-64
2022/01/09 04:12:17;;;;;;;1.63;1.60;;;4.60;99.90;;;5.40;91.40;95805.03;5186314;28;20612;-64
2022/01/09 04:14:50;;;;;;;1.70;1.70;;;4.70;99.90;;;5.41;91.04;95800.06;5188657;28;20239;-64
2022/01/09 04:17:33;;;;;;;1.60;1.50;;;4.70;99.90;;;5.40;91.85;95803.38;5184984;28;20230;-66
2022/01/09 04:20:09;;;;;;;1.93;1.83;;;4.80;99.90;;;5.34;92.98;95795.50;5183295;28;20266;-63
2022/01/09 04:22:42;;;;;;;2.03;1.93;;;4.80;99.90;;;5.53;92.41;95807.31;5189039;28;20689;-63
2022/01/09 04:25:17;;;;;;;1.83;1.73;;;4.80;99.90;;;5.53;92.46;95819.97;5186414;28;20226;-64
2022/01/09 04:27:52;;;;;;;1.73;1.70;;;4.90;99.90;;;5.47;92.70;95829.00;5186233;28;20226;-63
2022/01/09 04:30:26;;;;;;;2.00;1.90;;;4.90;99.90;;;5.54;92.64;95830.97;5184720;28;20222;-63
2022/01/09 04:32:59;;;;;;;1.83;1.80;;;4.90;99.90;;;5.48;92.39;95838.31;5186729;28;20267;-63
2022/01/09 04:35:32;;;;;;;1.40;1.40;;;4.90;99.90;;;5.50;92.73;95839.25;5183611;28;20233;-63
2022/01/09 04:38:06;;;;;;;1.80;1.80;;;4.90;99.90;;;5.50;92.65;95854.47;5184825;28;20589;-63
2022/01/09 04:40:40;;;;;;;2.00;2.00;;;5.00;99.90;;;5.58;91.75;95859.06;5194073;28;20223;-62
2022/01/09 04:43:15;;;;;;;1.50;1.50;;;5.00;99.90;;;5.54;92.42;95861.38;5179880;28;20229;-63
2022/01/09 04:45:49;;;;;;;2.13;2.10;;;5.00;99.90;;;5.61;92.43;95873.53;5188828;28;20230;-65
2022/01/09 04:48:22;;;;;;;1.90;1.80;;;5.00;99.90;;;5.61;92.87;95873.53;5184852;28;20584;-63
2022/01/09 04:50:56;;;;;;;2.10;2.00;;;5.00;99.90;;;5.51;92.90;95881.50;5189393;28;20237;-63
2022/01/09 04:53:29;;;;;;;2.00;2.00;;;5.00;99.90;;;5.50;93.44;95884.88;5171757;28;20213;-63
2022/01/09 04:56:04;;;;;;;2.03;1.77;;;5.00;99.90;;;5.51;93.37;95894.19;5193062;28;20218;-63
2022/01/09 04:58:37;;;;;;;1.90;1.80;;;5.00;99.90;;;5.54;93.55;95894.31;5186371;28;20239;-63
2022/01/09 05:01:10;;;;;;;1.70;1.70;;;4.90;99.90;;;5.63;92.56;95897.25;5183930;28;20225;-62
2022/01/09 05:03:43;;;;;;;1.70;1.70;;;5.00;99.90;;;5.62;92.44;95896.38;5185477;28;20596;-63
2022/01/09 05:06:16;;;;;;;1.80;1.80;;;5.00;99.90;;;5.57;93.73;95896.97;5178776;28;20253;-62
2022/01/09 05:08:49;;;;;;;1.80;1.80;;;5.00;99.90;;;5.50;93.12;95905.13;5180648;28;20223;-62
2022/01/09 05:11:24;;;;;;;1.90;1.90;;;4.90;99.90;;;5.45;93.93;95912.50;5173126;28;20766;-63
2022/01/09 05:13:57;;;;;;;2.07;2.00;;;5.00;99.90;;;5.34;94.49;95917.09;5190181;28;20222;-63
2022/01/09 05:16:30;;;;;;;2.10;2.10;;;4.90;99.90;;;5.42;94.82;95923.38;5183978;28;20228;-63
2022/01/09 05:19:06;;;;;;;1.70;1.70;;;4.80;99.90;;;5.28;95.09;95932.00;5184784;28;20219;-63
2022/01/09 05:21:39;;;;;;;1.70;1.60;;;4.80;99.90;;;5.20;95.43;95926.59;5183676;28;20218;-63
2022/01/09 05:24:12;;;;;;;2.07;1.97;;;4.70;99.90;;;5.17;96.08;95961.91;5183958;28;20219;-62
2022/01/09 05:26:46;;;;;;;1.60;1.60;;;4.70;99.90;;;5.16;96.29;95970.31;5185342;28;20227;-63
2022/01/09 05:29:19;;;;;;;1.87;1.87;;;4.60;99.90;;;5.12;96.95;95987.78;5183782;28;20222;-63
2022/01/09 05:31:52;;;;;;;1.60;1.50;;;4.50;99.90;;;4.92;97.08;96014.69;5184531;28;20218;-63
2022/01/09 05:34:25;;;;;;;2.03;2.03;;;4.40;99.90;;;4.89;97.71;96020.50;5198671;22;20210;-66
2022/01/09 05:36:58;;;;;;;1.97;1.97;;;4.30;99.90;;;4.82;98.13;96028.56;5188685;28;20229;-65
2022/01/09 05:39:31;;;;;;;1.73;1.73;;;4.30;99.90;;;4.76;99.06;96045.13;5184730;28;20690;-66
2022/01/09 05:42:09;;;;;;;1.87;1.87;;;4.20;99.90;;;4.78;99.45;96063.75;5182787;28;20227;-65
2022/01/09 05:44:43;;;;;;;2.00;1.90;;;4.10;99.90;;;4.84;98.84;96066.63;5179564;28;20231;-65
2022/01/09 05:47:16;;;;;;;1.70;1.70;;;4.10;99.90;;;4.65;99.03;96080.00;5175198;28;20223;-66
2022/01/09 05:49:49;;;;;;;1.80;1.80;;;4.00;99.90;;;4.72;98.39;96077.88;5178749;28;20234;-66
2022/01/09 05:52:22;;;;;;;1.70;1.70;;;4.00;99.90;;;4.67;99.10;96088.56;5179385;28;20222;-66
2022/01/09 05:54:55;;;;;;;1.83;1.83;;;4.00;99.90;;;4.56;98.92;96104.84;5178955;28;20789;-68
2022/01/09 05:57:30;;;;;;;1.93;1.83;;;4.00;99.90;;;4.55;99.03;96118.25;5183897;28;20226;-66
2022/01/09 06:00:05;;;;;;;1.90;1.90;;;4.00;99.90;;;4.44;99.45;96116.06;5174940;28;20232;-66
2022/01/09 06:02:38;;;;;;;1.93;1.93;;;3.80;99.90;;;4.44;100.00;96126.19;5182366;28;20226;-66
2022/01/09 06:05:12;;;;;;;2.07;2.07;;;3.80;99.90;;;4.45;100.00;96125.38;5176442;28;20218;-67
2022/01/09 06:07:45;;;;;;;2.07;2.07;;;3.80;99.90;;;4.36;100.00;96136.69;5174488;28;20232;-68
2022/01/09 06:10:18;;;;;;;1.70;1.70;;;3.70;99.90;;;4.32;100.00;96153.38;5180826;28;20229;-67
2022/01/09 06:12:52;;;;;;;1.90;1.80;;;3.60;99.90;;;4.23;100.00;96155.38;5172327;28;20604;-67
2022/01/09 06:15:26;;;;;;;1.50;1.50;;;3.70;99.90;;;4.26;100.00;96166.56;5181589;28;20228;-67
2022/01/09 06:17:58;;;;;;;1.97;1.97;;;3.60;99.90;;;4.05;100.00;96171.31;5181237;28;20222;-67
2022/01/09 06:20:32;;;;;;;1.83;1.83;;;3.60;99.90;;;4.04;100.00;96184.75;5179967;28;20217;-67
2022/01/09 06:23:05;;;;;;;2.10;2.00;;;3.50;99.90;;;4.29;100.00;96181.88;5175509;28;20226;-66
2022/01/09 06:25:38;;;;;;;2.10;2.10;;;3.60;99.90;;;4.24;100.00;96197.59;5172015;28;20224;-68
2022/01/09 06:28:12;;;;;;;2.00;1.90;;;3.60;99.90;;;4.24;100.00;96195.06;5177969;28;20248;-66
2022/01/09 06:30:46;;;;;;;1.60;1.50;;;3.60;99.90;;;4.32;100.00;96208.09;5167759;28;20236;-67
2022/01/09 06:33:22;;;;;;;1.77;1.70;;;3.60;99.90;;;4.14;100.00;96210.50;5178475;28;20222;-66
2022/01/09 06:35:55;;;;;;;2.23;2.10;;;3.50;99.90;;;4.20;100.00;96220.97;5167449;28;20226;-68
2022/01/09 06:38:28;;;;;;;2.10;1.90;;;3.60;99.90;;;4.13;100.00;96223.97;5166494;28;20292;-68
2022/01/09 06:41:01;;;;;;;2.20;2.10;;;3.50;99.90;;;4.25;100.00;96243.19;5176513;28;20241;-68
2022/01/09 06:43:35;;;;;;;2.53;2.20;;;3.50;99.90;;;4.15;100.00;96243.47;5181241;28;20226;-68
2022/01/09 06:46:08;;;;;;;2.40;2.30;;;3.50;99.90;;;4.10;100.00;96244.88;5173650;28;20225;-68
2022/01/09 06:48:42;;;;;;;2.47;2.27;;;3.50;99.90;;;4.14;100.00;96256.88;5179853;28;20594;-68
2022/01/09 06:51:15;;;;;;;2.40;2.27;;;3.40;99.90;;;4.02;100.00;96246.97;5182216;28;20225;-68
2022/01/09 06:53:48;;;;;;;2.00;2.00;;;3.40;99.90;;;4.00;100.00;96263.69;5174375;28;20234;-68
2022/01/09 06:56:21;;;;;;;2.10;2.00;;;3.30;99.90;;;3.90;100.00;96266.50;5178310;28;20233;-67
2022/01/09 06:58:55;;;;;;;2.13;2.00;;;3.30;99.90;;;3.92;100.00;96270.00;5182257;28;20230;-67
2022/01/09 07:01:29;;;;;;;2.30;2.20;;;3.30;99.90;;;3.90;100.00;96270.69;5182893;28;20225;-69
2022/01/09 07:04:02;;;;;;;2.33;2.23;;;3.30;99.90;;;3.91;100.00;96282.53;5178930;28;20233;-68
2022/01/09 07:06:35;;;;;;;2.20;2.10;;;3.20;99.90;;;3.85;100.00;96285.59;5174144;28;20227;-67
2022/01/09 07:09:09;;;;;;;2.40;2.30;;;3.20;99.90;;;3.86;100.00;96289.84;5177170;28;20702;-67
2022/01/09 07:11:42;;;;;;;2.23;2.03;;;3.20;99.90;;;3.77;100.00;96304.50;5182452;28;20236;-68
2022/01/09 07:14:16;;;;;;;2.07;2.07;;;3.10;99.90;;;3.88;100.00;96308.50;5183910;28;20225;-67
2022/01/09 07:16:49;;;;;;;2.60;2.50;;;3.20;99.90;;;3.83;100.00;96310.78;5178296;28;20224;-68
2022/01/09 07:19:22;;;;;;;2.13;2.10;;;3.20;99.90;;;3.77;100.00;96314.59;5185109;28;20235;-68
2022/01/09 07:21:56;;;;;;;2.30;2.27;;;3.20;99.90;;;3.80;100.00;96319.81;5180430;28;20227;-68
2022/01/09 07:24:29;;;;;;;2.63;2.53;;;3.20;99.90;;;3.86;100.00;96325.22;5177757;28;20225;-68
2022/01/09 07:27:02;;;;;;;2.40;2.30;;;3.20;99.90;;;3.82;100.00;96338.47;5179748;28;20587;-68
2022/01/09 07:29:36;;;;;;;1.90;1.90;;;3.20;99.90;;;3.70;100.00;96341.19;5184355;28;20217;-68
2022/01/09 07:32:09;;;;;;;2.20;2.10;;;3.10;99.90;;;3.76;100.00;96348.25;5185251;28;20224;-68
2022/01/09 07:34:42;;;;;;;2.13;2.10;;;3.10;99.90;;;3.75;100.00;96356.59;5177668;28;20220;-68
2022/01/09 07:37:16;;;;;;;1.87;1.77;;;3.10;99.90;;;3.79;100.00;96363.56;5183312;28;20232;-68
2022/01/09 07:39:50;;;;;;;2.40;2.40;;;3.00;99.90;;;3.74;100.00;96363.28;5177112;28;20219;-68
2022/01/09 07:42:23;;;;;;;2.03;2.03;;;3.00;99.90;;;3.66;100.00;96372.06;5178793;28;20221;-68
2022/01/09 07:44:57;;;;;;;1.93;1.93;;;3.00;99.90;;;3.53;100.00;96373.00;5180730;28;20229;-67
2022/01/09 07:47:30;;;;;;;2.07;1.97;;;2.90;99.90;;;3.67;100.00;96383.94;5182985;28;20231;-68
2022/01/09 07:50:05;;;;;;;2.00;1.93;;;3.00;99.90;;;3.66;100.00;96386.38;5182250;28;20303;-68
2022/01/09 07:52:39;;;;;;;2.40;2.30;;;2.90;99.90;;;3.62;100.00;96387.84;5177750;28;20728;-68
2022/01/09 07:55:13;;;;;;;3.47;3.27;;;2.90;99.90;;;3.59;100.00;96397.78;5181637;28;20246;-69
2022/01/09 07:57:46;;;;;;;8.50;6.57;;;3.00;99.90;;;3.58;100.00;96399.44;5166138;28;20231;-68
2022/01/09 08:00:22;;;;;;;3.03;2.83;;;3.00;99.90;;;3.56;100.00;96398.47;5173482;28;20234;-68
2022/01/09 08:02:54;;;;;;;2.57;2.47;;;3.00;99.90;;;3.63;100.00;96407.25;5180293;28;20218;-68
2022/01/09 08:05:28;;;;;;;2.60;2.50;;;3.00;99.90;;;3.67;100.00;96413.41;5176690;28;20247;-67
2022/01/09 08:08:01;;;;;;;2.83;2.73;;;3.00;99.90;;;3.64;100.00;96414.06;5175101;28;20223;-68
2022/01/09 08:10:34;;;;;;;3.13;2.97;;;3.00;99.90;;;3.59;100.00;96423.03;5174765;28;20220;-69
2022/01/09 08:13:07;;;;;;;2.97;2.83;;;3.00;99.90;;;3.59;100.00;96441.56;5178407;28;20256;-68
2022/01/09 08:15:42;;;;;;;2.63;2.43;;;3.00;99.90;;;3.74;100.00;96433.16;5177641;28;20248;-67
2022/01/09 08:18:15;;;;;;;2.60;2.40;;;3.10;99.90;;;3.75;100.00;96437.44;5176347;28;20217;-67
2022/01/09 08:20:48;;;;;;;3.60;3.33;;;3.10;99.90;;;3.77;100.00;96456.09;5175726;28;20669;-68
2022/01/09 08:23:21;;;;;;;2.87;2.67;;;3.10;99.90;;;3.70;100.00;96466.63;5181276;28;20240;-67
2022/01/09 08:25:54;;;;;;;4.07;2.83;;;3.10;99.90;;;3.80;100.00;96466.38;5180475;28;20232;-66
2022/01/09 08:28:27;;;;;;;3.23;2.87;;;3.10;99.90;;;3.87;100.00;96471.03;5175592;28;20224;-67
2022/01/09 08:31:01;;;;;;;2.67;2.57;;;3.20;99.90;;;3.78;100.00;96485.66;5171782;28;20219;-68
2022/01/09 08:33:34;;;;;;;3.40;3.10;;;3.20;99.90;;;3.82;100.00;96482.53;5180313;28;20225;-66
2022/01/09 08:36:08;;;;;;;3.43;3.13;;;3.20;99.90;;;3.89;100.00;96477.03;5176318;28;20233;-66
2022/01/09 08:38:42;;;;;;;3.63;2.80;;;3.20;99.90;;;3.88;100.00;96487.94;5175529;28;20229;-66
2022/01/09 08:41:15;;;;;;;4.37;2.83;;;3.20;99.90;;;3.98;100.00;96486.84;5166617;28;20767;-66
2022/01/09 08:43:48;;;;;;;5.03;3.30;;;3.30;99.90;;;3.95;100.00;96502.72;5178459;28;20714;-67
2022/01/09 08:46:23;;;;;;;3.27;2.97;;;3.30;99.90;;;3.96;100.00;96499.38;5179598;28;20226;-67
2022/01/09 08:48:56;;;;;;;6.50;3.30;;;3.40;99.90;;;4.06;100.00;96501.69;5180849;28;20231;-68
2022/01/09 08:51:29;;;;;;;5.07;3.23;;;3.40;99.90;;;4.19;100.00;96498.22;5171282;28;20231;-66
2022/01/09 08:54:02;;;;;;;3.53;3.20;;;3.40;99.90;;;4.24;100.00;96508.63;5175538;28;20222;-67
2022/01/09 08:56:38;;;;;;;4.90;3.80;;;3.50;99.90;;;4.15;100.00;96505.53;5179603;28;20231;-66
2022/01/09 08:59:12;;;;;;;4.83;3.57;;;3.50;99.90;;;4.18;100.00;96528.50;5177445;28;20342;-68
2022/01/09 09:01:50;;;;;;;4.83;3.63;;;3.50;99.90;;;4.25;100.00;96528.06;5178983;28;20696;-68
2022/01/09 09:04:24;;;;;;;7.87;3.60;;;3.50;99.90;;;4.23;100.00;96537.19;5175603;28;20233;-68
2022/01/09 09:06:57;;;;;;;4.93;3.33;;;3.60;99.90;;;4.28;100.00;96538.34;5181479;28;20217;-68
2022/01/09 09:09:30;;;;;;;5.57;3.20;;;3.50;99.90;;;4.26;100.00;96539.91;5173825;28;20223;-68
2022/01/09 09:12:32;;;;;;;7.63;3.90;;;3.60;99.90;;;4.40;100.00;96550.84;5171498;28;20230;-69
2022/01/09 09:15:28;;;;;;;4.93;3.47;;;3.60;99.90;;;4.42;100.00;96557.75;5176569;28;20225;-67
2022/01/09 09:18:16;;;;;;;7.13;4.53;;;3.60;99.90;;;4.35;100.00;96552.22;5170462;28;20222;-67
2022/01/09 09:20:55;;;;;;;6.53;3.93;;;3.60;99.90;;;4.43;100.00;96564.53;5179520;28;20222;-67
2022/01/09 09:23:50;;;;;;;7.47;4.27;;;3.60;99.90;;;4.36;98.86;96576.75;5174168;28;20249;-68
2022/01/09 09:26:35;;;;;;;5.90;4.37;;;3.70;99.90;;;4.37;100.00;96574.31;5180296;28;20218;-67
2022/01/09 09:29:19;;;;;;;5.50;3.87;;;3.70;99.90;;;4.40;100.00;96577.00;5179452;28;20347;-68
2022/01/09 09:32:03;;;;;;;5.57;3.17;;;3.70;99.90;;;4.38;99.61;96586.19;5181178;28;20264;-68
2022/01/09 09:34:44;;;;;;;5.60;3.10;;;3.80;99.90;;;4.62;100.00;96588.41;5172958;28;20227;-68
2022/01/09 09:37:17;;;;;;;5.00;3.57;;;3.90;99.90;;;4.69;99.43;96587.97;5176104;28;20692;-69
2022/01/09 09:39:51;;;;;;;3.77;3.37;;;4.00;99.90;;;4.74;98.75;96591.66;5171982;28;20249;-67
2022/01/09 09:42:25;;;;;;;4.30;3.13;;;4.00;99.90;;;4.67;95.94;96594.63;5175838;28;20309;-68
2022/01/09 09:45:00;;;;;;;4.90;3.70;;;4.00;99.90;;;4.74;98.55;96587.47;5172606;28;20240;-69
2022/01/09 09:47:35;;;;;;;4.07;3.73;;;4.00;99.90;;;4.63;98.69;96602.81;5177553;28;20277;-68
2022/01/09 09:50:14;;;;;;;5.70;3.80;;;4.00;99.90;;;4.65;98.37;96603.78;5179266;28;20225;-69
2022/01/09 09:52:49;;;;;;;6.60;3.73;;;3.90;99.90;;;4.59;95.78;96600.91;5172995;28;20234;-68
2022/01/09 09:55:38;;;;;;;7.93;3.60;;;3.90;99.90;;;4.74;95.74;96611.91;5174787;28;20739;-68
2022/01/09 09:58:11;;;;;;;6.10;3.60;;;4.00;99.90;;;4.77;95.02;96612.09;5174703;28;20222;-69
2022/01/09 10:00:52;;;;;;;6.77;3.37;;;4.00;99.90;;;4.79;95.63;96612.19;5180168;28;20233;-68
2022/01/09 10:03:29;;;;;;;5.10;3.27;;;4.00;99.90;;;4.84;94.57;96619.28;5177976;28;20218;-68
2022/01/09 10:06:03;;;;;;;7.13;3.87;;;4.10;99.90;;;4.72;93.05;96621.06;5178488;28;20264;-68
2022/01/09 10:08:38;;;;;;;3.87;3.23;;;4.10;99.90;;;4.67;93.77;96619.94;5179990;28;20232;-68
2022/01/09 10:11:16;;;;;;;6.33;3.23;;;4.10;99.90;;;4.82;92.44;96623.38;5175671;28;20478;-68
2022/01/09 10:14:21;;;;;;;4.90;3.40;;;4.10;99.90;;;4.83;95.03;96630.16;5175545;28;20218;-68
2022/01/09 10:17:16;;;;;;;5.07;3.07;;;4.10;99.90;;;4.83;93.86;96632.69;5176896;28;20218;-68
2022/01/09 10:19:54;;;;;;;4.13;3.73;;;4.10;99.90;;;4.84;96.73;96629.41;5167545;28;20239;-68
2022/01/09 10:22:36;;;;;;;7.17;3.40;;;4.20;99.90;;;4.84;97.46;96644.59;5173490;28;20792;-68
2022/01/09 10:25:24;;;;;;;6.00;3.30;;;4.20;99.90;;;4.88;96.28;96636.38;5178777;28;20237;-67
2022/01/09 10:28:02;;;;;;;6.60;3.27;;;4.20;99.90;;;4.97;97.13;96636.91;5172830;28;20227;-68
2022/01/09 10:30:40;;;;;;;5.13;3.10;;;4.30;99.90;;;5.04;95.84;96637.28;5177916;28;20214;-68
2022/01/09 10:33:15;;;;;;;6.67;3.20;;;4.40;99.90;;;5.27;97.59;96638.63;5178363;28;20281;-67
2022/01/09 10:35:50;;;;;;;5.73;2.93;;;4.50;99.90;;;5.27;96.67;96642.03;5167229;28;20717;-67
2022/01/09 10:38:29;;;;;;;5.73;3.40;;;4.60;99.90;;;5.29;97.26;96637.91;5174002;28;20214;-67
2022/01/09 10:41:04;;;;;;;5.77;3.27;;;4.60;99.90;;;5.42;97.36;96637.81;5169558;28;20231;-68
2022/01/09 10:43:41;;;;;;;4.60;3.20;;;4.60;99.90;;;5.42;94.49;96637.81;5173130;28;20515;-67
2022/01/09 10:46:14;;;;;;;6.30;3.40;;;4.70;99.90;;;5.34;93.10;96650.84;5176657;28;20627;-68
2022/01/09 10:48:47;;;;;;;6.97;3.80;;;4.70;99.90;;;5.41;95.83;96653.81;5168762;28;20238;-68
2022/01/09 10:51:20;;;;;;;10.00;4.23;;;4.70;99.90;;;5.43;94.62;96659.81;5180587;28;20215;-67
2022/01/09 10:53:55;;;;;;;5.93;3.53;;;4.70;99.90;;;5.60;95.62;96664.97;5181143;28;20226;-67
2022/01/09 10:56:28;;;;;;;6.80;3.50;;;4.70;99.90;;;5.57;93.84;96662.28;5180736;28;20217;-67
2022/01/09 10:59:01;;;;;;;6.07;3.37;;;4.70;99.90;;;5.59;94.55;96663.25;5179540;28;20682;-68
2022/01/09 11:01:35;;;;;;;6.27;3.00;;;4.70;99.90;;;5.58;91.83;96658.94;5184224;28;20237;-68